sensor_id;sensor_type;location;lat;lon;timestamp;temperature;humidity
17415;DHT22;8825;48.086;16.426;2024-03-06T00:01:46;8.80;68.00
17415;DHT22;8825;48.086;16.426;2024-03-06T00:04:14;8.80;68.00
17415;DHT22;8825;48.086;16.426;2024-03-06T00:06:41;8.80;68.20
17415;DHT22;8825;48.086;16.426;2024-03-06T00:09:09;8.80;68.40
17415;DHT22;8825;48.086;16.426;2024-03-06T00:11:38;8.80;68.60
17415;DHT22;8825;48.086;16.426;2024-03-06T00:14:06;8.80;68.80
17415;DHT22;8825;48.086;16.426;2024-03-06T00:16:34;8.80;69.00
17415;DHT22;8825;48.086;16.426;2024-03-06T00:19:01;8.80;69.10
17415;DHT22;8825;48.086;16.426;2024-03-06T00:21:29;8.90;70.10
17415;DHT22;8825;48.086;16.426;2024-03-06T00:23:56;8.80;69.20
17415;DHT22;8825;48.086;16.426;2024-03-06T00:26:24;8.80;69.30
17415;DHT22;8825;48.086;16.426;2024-03-06T00:28:51;8.80;69.30
17415;DHT22;8825;48.086;16.426;2024-03-06T00:31:19;8.80;69.30
17415;DHT22;8825;48.086;16.426;2024-03-06T00:33:46;8.80;69.30
17415;DHT22;8825;48.086;16.426;2024-03-06T00:36:14;8.80;69.30
17415;DHT22;8825;48.086;16.426;2024-03-06T00:38:42;8.80;69.30
17415;DHT22;8825;48.086;16.426;2024-03-06T00:41:10;8.80;69.30
17415;DHT22;8825;48.086;16.426;2024-03-06T00:43:38;8.80;69.30
17415;DHT22;8825;48.086;16.426;2024-03-06T00:46:05;8.80;69.30
17415;DHT22;8825;48.086;16.426;2024-03-06T00:48:33;8.70;69.40
17415;DHT22;8825;48.086;16.426;2024-03-06T00:51:00;8.70;69.40
17415;DHT22;8825;48.086;16.426;2024-03-06T00:53:28;8.70;69.50
17415;DHT22;8825;48.086;16.426;2024-03-06T00:55:56;8.70;69.50
17415;DHT22;8825;48.086;16.426;2024-03-06T00:58:23;8.70;69.60
17415;DHT22;8825;48.086;16.426;2024-03-06T01:00:51;8.70;69.70
17415;DHT22;8825;48.086;16.426;2024-03-06T01:03:18;8.70;69.70
17415;DHT22;8825;48.086;16.426;2024-03-06T01:05:46;8.60;69.70
17415;DHT22;8825;48.086;16.426;2024-03-06T01:08:14;8.70;69.70
17415;DHT22;8825;48.086;16.426;2024-03-06T01:10:43;8.60;70.60
17415;DHT22;8825;48.086;16.426;2024-03-06T01:13:11;8.60;69.80
17415;DHT22;8825;48.086;16.426;2024-03-06T01:15:39;8.60;69.80
17415;DHT22;8825;48.086;16.426;2024-03-06T01:18:06;8.60;69.80
17415;DHT22;8825;48.086;16.426;2024-03-06T01:20:34;8.60;69.90
17415;DHT22;8825;48.086;16.426;2024-03-06T01:23:02;8.60;69.90
17415;DHT22;8825;48.086;16.426;2024-03-06T01:25:30;8.50;69.90
17415;DHT22;8825;48.086;16.426;2024-03-06T01:27:58;8.50;69.90
17415;DHT22;8825;48.086;16.426;2024-03-06T01:30:25;8.50;70.00
17415;DHT22;8825;48.086;16.426;2024-03-06T01:32:53;8.50;70.10
17415;DHT22;8825;48.086;16.426;2024-03-06T01:35:20;8.40;70.20
17415;DHT22;8825;48.086;16.426;2024-03-06T01:37:48;8.50;70.30
17415;DHT22;8825;48.086;16.426;2024-03-06T01:40:15;8.50;70.30
17415;DHT22;8825;48.086;16.426;2024-03-06T01:42:43;8.40;70.30
17415;DHT22;8825;48.086;16.426;2024-03-06T01:45:11;8.40;70.50
17415;DHT22;8825;48.086;16.426;2024-03-06T01:47:38;8.40;70.50
17415;DHT22;8825;48.086;16.426;2024-03-06T01:50:07;8.40;70.50
17415;DHT22;8825;48.086;16.426;2024-03-06T01:52:36;8.30;70.90
17415;DHT22;8825;48.086;16.426;2024-03-06T01:55:05;8.30;70.50
17415;DHT22;8825;48.086;16.426;2024-03-06T01:57:34;8.30;70.60
17415;DHT22;8825;48.086;16.426;2024-03-06T02:00:03;8.30;70.80
17415;DHT22;8825;48.086;16.426;2024-03-06T02:02:31;8.30;70.90
17415;DHT22;8825;48.086;16.426;2024-03-06T02:04:59;8.30;71.00
17415;DHT22;8825;48.086;16.426;2024-03-06T02:07:28;8.30;71.10
17415;DHT22;8825;48.086;16.426;2024-03-06T02:09:55;8.30;71.10
17415;DHT22;8825;48.086;16.426;2024-03-06T02:12:24;8.30;71.10
17415;DHT22;8825;48.086;16.426;2024-03-06T02:14:51;8.30;71.10
17415;DHT22;8825;48.086;16.426;2024-03-06T02:17:19;8.20;71.10
17415;DHT22;8825;48.086;16.426;2024-03-06T02:19:46;8.20;71.10
17415;DHT22;8825;48.086;16.426;2024-03-06T02:22:14;8.20;71.30
17415;DHT22;8825;48.086;16.426;2024-03-06T02:24:43;8.20;71.40
17415;DHT22;8825;48.086;16.426;2024-03-06T02:27:11;8.20;71.50
17415;DHT22;8825;48.086;16.426;2024-03-06T02:29:39;8.20;72.40
17415;DHT22;8825;48.086;16.426;2024-03-06T02:32:06;8.30;71.70
17415;DHT22;8825;48.086;16.426;2024-03-06T02:34:34;8.20;71.80
17415;DHT22;8825;48.086;16.426;2024-03-06T02:37:02;8.30;72.00
17415;DHT22;8825;48.086;16.426;2024-03-06T02:39:29;8.30;72.10
17415;DHT22;8825;48.086;16.426;2024-03-06T02:41:57;8.30;72.30
17415;DHT22;8825;48.086;16.426;2024-03-06T02:44:24;8.30;72.50
17415;DHT22;8825;48.086;16.426;2024-03-06T02:46:52;8.30;72.60
17415;DHT22;8825;48.086;16.426;2024-03-06T02:49:19;8.30;72.70
17415;DHT22;8825;48.086;16.426;2024-03-06T02:51:47;8.40;72.70
17415;DHT22;8825;48.086;16.426;2024-03-06T02:54:14;8.40;72.80
17415;DHT22;8825;48.086;16.426;2024-03-06T02:56:42;8.40;72.90
17415;DHT22;8825;48.086;16.426;2024-03-06T02:59:10;8.40;73.00
17415;DHT22;8825;48.086;16.426;2024-03-06T03:01:37;8.40;73.00
17415;DHT22;8825;48.086;16.426;2024-03-06T03:04:05;8.40;73.10
17415;DHT22;8825;48.086;16.426;2024-03-06T03:06:33;8.40;73.10
17415;DHT22;8825;48.086;16.426;2024-03-06T03:09:01;8.40;73.10
17415;DHT22;8825;48.086;16.426;2024-03-06T03:11:30;8.40;73.10
17415;DHT22;8825;48.086;16.426;2024-03-06T03:13:58;8.40;73.10
17415;DHT22;8825;48.086;16.426;2024-03-06T03:16:26;8.40;73.20
17415;DHT22;8825;48.086;16.426;2024-03-06T03:18:53;8.40;73.30
17415;DHT22;8825;48.086;16.426;2024-03-06T03:21:21;8.40;73.30
17415;DHT22;8825;48.086;16.426;2024-03-06T03:23:49;8.40;73.40
17415;DHT22;8825;48.086;16.426;2024-03-06T03:26:16;8.40;73.40
17415;DHT22;8825;48.086;16.426;2024-03-06T03:28:44;8.40;73.40
17415;DHT22;8825;48.086;16.426;2024-03-06T03:31:11;8.30;73.30
17415;DHT22;8825;48.086;16.426;2024-03-06T03:33:42;8.30;73.20
17415;DHT22;8825;48.086;16.426;2024-03-06T03:36:09;8.30;73.20
17415;DHT22;8825;48.086;16.426;2024-03-06T03:38:40;8.30;73.20
17415;DHT22;8825;48.086;16.426;2024-03-06T03:41:08;8.20;73.10
17415;DHT22;8825;48.086;16.426;2024-03-06T03:43:36;8.20;73.00
17415;DHT22;8825;48.086;16.426;2024-03-06T03:46:05;8.20;72.90
17415;DHT22;8825;48.086;16.426;2024-03-06T03:48:33;8.20;73.00
17415;DHT22;8825;48.086;16.426;2024-03-06T03:51:03;8.10;73.00
17415;DHT22;8825;48.086;16.426;2024-03-06T03:53:34;8.10;73.10
17415;DHT22;8825;48.086;16.426;2024-03-06T03:56:02;8.10;73.10
17415;DHT22;8825;48.086;16.426;2024-03-06T03:58:30;8.10;73.10
17415;DHT22;8825;48.086;16.426;2024-03-06T04:00:57;8.10;73.00
17415;DHT22;8825;48.086;16.426;2024-03-06T04:03:25;8.10;73.00
17415;DHT22;8825;48.086;16.426;2024-03-06T04:05:53;8.10;73.00
17415;DHT22;8825;48.086;16.426;2024-03-06T04:08:20;8.10;72.90
17415;DHT22;8825;48.086;16.426;2024-03-06T04:10:48;8.10;72.90
17415;DHT22;8825;48.086;16.426;2024-03-06T04:13:16;8.00;72.70
17415;DHT22;8825;48.086;16.426;2024-03-06T04:15:45;8.00;72.80
17415;DHT22;8825;48.086;16.426;2024-03-06T04:18:12;8.10;72.80
17415;DHT22;8825;48.086;16.426;2024-03-06T04:20:40;8.00;72.80
17415;DHT22;8825;48.086;16.426;2024-03-06T04:23:07;8.00;72.80
17415;DHT22;8825;48.086;16.426;2024-03-06T04:25:35;8.00;72.80
17415;DHT22;8825;48.086;16.426;2024-03-06T04:28:04;8.00;72.70
17415;DHT22;8825;48.086;16.426;2024-03-06T04:30:33;8.00;72.60
17415;DHT22;8825;48.086;16.426;2024-03-06T04:33:00;8.00;72.40
17415;DHT22;8825;48.086;16.426;2024-03-06T04:35:28;8.10;72.40
17415;DHT22;8825;48.086;16.426;2024-03-06T04:37:56;8.00;72.20
17415;DHT22;8825;48.086;16.426;2024-03-06T04:40:23;8.00;72.20
17415;DHT22;8825;48.086;16.426;2024-03-06T04:42:51;8.00;72.10
17415;DHT22;8825;48.086;16.426;2024-03-06T04:45:19;8.00;72.00
17415;DHT22;8825;48.086;16.426;2024-03-06T04:47:46;8.00;72.00
17415;DHT22;8825;48.086;16.426;2024-03-06T04:50:14;7.90;71.90
17415;DHT22;8825;48.086;16.426;2024-03-06T04:52:43;7.90;71.80
17415;DHT22;8825;48.086;16.426;2024-03-06T04:55:12;7.90;71.90
17415;DHT22;8825;48.086;16.426;2024-03-06T04:57:43;7.90;71.90
17415;DHT22;8825;48.086;16.426;2024-03-06T05:00:11;7.90;71.80
17415;DHT22;8825;48.086;16.426;2024-03-06T05:02:39;7.90;71.70
17415;DHT22;8825;48.086;16.426;2024-03-06T05:05:08;7.90;71.70
17415;DHT22;8825;48.086;16.426;2024-03-06T05:07:36;7.80;71.50
17415;DHT22;8825;48.086;16.426;2024-03-06T05:10:03;7.80;71.40
17415;DHT22;8825;48.086;16.426;2024-03-06T05:12:33;7.70;71.10
17415;DHT22;8825;48.086;16.426;2024-03-06T05:15:00;7.70;71.00
17415;DHT22;8825;48.086;16.426;2024-03-06T05:17:29;7.70;71.10
17415;DHT22;8825;48.086;16.426;2024-03-06T05:19:56;7.60;70.80
17415;DHT22;8825;48.086;16.426;2024-03-06T05:22:24;7.60;70.70
17415;DHT22;8825;48.086;16.426;2024-03-06T05:24:52;7.50;70.70
17415;DHT22;8825;48.086;16.426;2024-03-06T05:27:21;7.50;70.70
17415;DHT22;8825;48.086;16.426;2024-03-06T05:29:49;7.50;70.80
17415;DHT22;8825;48.086;16.426;2024-03-06T05:32:17;7.50;70.90
17415;DHT22;8825;48.086;16.426;2024-03-06T05:34:44;7.50;71.00
17415;DHT22;8825;48.086;16.426;2024-03-06T05:37:12;7.50;71.10
17415;DHT22;8825;48.086;16.426;2024-03-06T05:39:39;7.50;71.10
17415;DHT22;8825;48.086;16.426;2024-03-06T05:42:08;7.50;71.00
17415;DHT22;8825;48.086;16.426;2024-03-06T05:44:36;7.50;71.00
17415;DHT22;8825;48.086;16.426;2024-03-06T05:47:03;7.50;70.90
17415;DHT22;8825;48.086;16.426;2024-03-06T05:49:33;7.50;70.90
17415;DHT22;8825;48.086;16.426;2024-03-06T05:52:01;7.50;70.90
17415;DHT22;8825;48.086;16.426;2024-03-06T05:54:29;7.60;71.10
17415;DHT22;8825;48.086;16.426;2024-03-06T05:56:58;7.60;71.20
17415;DHT22;8825;48.086;16.426;2024-03-06T05:59:26;7.60;71.30
17415;DHT22;8825;48.086;16.426;2024-03-06T06:01:55;7.60;71.30
17415;DHT22;8825;48.086;16.426;2024-03-06T06:04:23;7.70;71.30
17415;DHT22;8825;48.086;16.426;2024-03-06T06:06:50;7.70;71.20
17415;DHT22;8825;48.086;16.426;2024-03-06T06:09:18;7.80;71.10
17415;DHT22;8825;48.086;16.426;2024-03-06T06:11:46;7.80;71.00
17415;DHT22;8825;48.086;16.426;2024-03-06T06:14:14;7.80;71.00
17415;DHT22;8825;48.086;16.426;2024-03-06T06:16:42;7.90;71.00
17415;DHT22;8825;48.086;16.426;2024-03-06T06:19:10;7.90;71.00
17415;DHT22;8825;48.086;16.426;2024-03-06T06:21:37;7.90;71.00
17415;DHT22;8825;48.086;16.426;2024-03-06T06:24:05;7.90;71.10
17415;DHT22;8825;48.086;16.426;2024-03-06T06:26:33;8.00;71.20
17415;DHT22;8825;48.086;16.426;2024-03-06T06:29:01;8.00;71.10
17415;DHT22;8825;48.086;16.426;2024-03-06T06:31:29;8.10;71.10
17415;DHT22;8825;48.086;16.426;2024-03-06T06:33:56;8.10;71.10
17415;DHT22;8825;48.086;16.426;2024-03-06T06:36:24;8.20;71.10
17415;DHT22;8825;48.086;16.426;2024-03-06T06:38:51;8.20;71.00
17415;DHT22;8825;48.086;16.426;2024-03-06T06:41:19;8.30;71.10
17415;DHT22;8825;48.086;16.426;2024-03-06T06:43:46;8.30;71.00
17415;DHT22;8825;48.086;16.426;2024-03-06T06:46:14;8.40;71.00
17415;DHT22;8825;48.086;16.426;2024-03-06T06:48:42;8.50;71.70
17415;DHT22;8825;48.086;16.426;2024-03-06T06:51:10;8.50;71.00
17415;DHT22;8825;48.086;16.426;2024-03-06T06:53:39;8.60;71.00
17415;DHT22;8825;48.086;16.426;2024-03-06T06:56:09;8.60;70.90
17415;DHT22;8825;48.086;16.426;2024-03-06T06:58:36;8.70;70.80
17415;DHT22;8825;48.086;16.426;2024-03-06T07:01:04;8.80;70.80
17415;DHT22;8825;48.086;16.426;2024-03-06T07:03:31;8.80;71.50
17415;DHT22;8825;48.086;16.426;2024-03-06T07:05:59;8.90;70.70
17415;DHT22;8825;48.086;16.426;2024-03-06T07:08:26;8.90;70.60
17415;DHT22;8825;48.086;16.426;2024-03-06T07:10:54;9.00;70.60
17415;DHT22;8825;48.086;16.426;2024-03-06T07:13:21;9.10;70.60
17415;DHT22;8825;48.086;16.426;2024-03-06T07:15:49;9.10;70.30
17415;DHT22;8825;48.086;16.426;2024-03-06T07:18:16;9.20;70.10
17415;DHT22;8825;48.086;16.426;2024-03-06T07:20:44;9.20;69.80
17415;DHT22;8825;48.086;16.426;2024-03-06T07:23:13;9.30;69.20
17415;DHT22;8825;48.086;16.426;2024-03-06T07:25:41;9.30;68.90
17415;DHT22;8825;48.086;16.426;2024-03-06T07:28:08;9.30;68.10
17415;DHT22;8825;48.086;16.426;2024-03-06T07:30:36;9.40;67.70
17415;DHT22;8825;48.086;16.426;2024-03-06T07:33:03;9.40;67.30
17415;DHT22;8825;48.086;16.426;2024-03-06T07:35:31;9.40;67.10
17415;DHT22;8825;48.086;16.426;2024-03-06T07:37:59;9.40;66.70
17415;DHT22;8825;48.086;16.426;2024-03-06T07:40:26;9.50;66.40
17415;DHT22;8825;48.086;16.426;2024-03-06T07:42:54;9.50;66.20
17415;DHT22;8825;48.086;16.426;2024-03-06T07:45:22;9.50;66.10
17415;DHT22;8825;48.086;16.426;2024-03-06T07:47:49;9.60;65.60
17415;DHT22;8825;48.086;16.426;2024-03-06T07:50:17;9.60;65.00
17415;DHT22;8825;48.086;16.426;2024-03-06T07:52:46;9.60;65.00
17415;DHT22;8825;48.086;16.426;2024-03-06T07:55:14;9.70;64.90
17415;DHT22;8825;48.086;16.426;2024-03-06T07:57:42;9.70;64.40
17415;DHT22;8825;48.086;16.426;2024-03-06T08:00:09;9.70;64.20
17415;DHT22;8825;48.086;16.426;2024-03-06T08:02:45;9.80;64.00
17415;DHT22;8825;48.086;16.426;2024-03-06T08:05:18;9.80;63.90
17415;DHT22;8825;48.086;16.426;2024-03-06T08:07:48;9.90;63.40
17415;DHT22;8825;48.086;16.426;2024-03-06T08:10:15;9.90;63.00
17415;DHT22;8825;48.086;16.426;2024-03-06T08:12:45;9.90;62.80
17415;DHT22;8825;48.086;16.426;2024-03-06T08:15:16;10.00;62.80
17415;DHT22;8825;48.086;16.426;2024-03-06T08:17:44;10.00;62.60
17415;DHT22;8825;48.086;16.426;2024-03-06T08:20:12;10.10;62.50
17415;DHT22;8825;48.086;16.426;2024-03-06T08:22:43;10.10;63.30
17415;DHT22;8825;48.086;16.426;2024-03-06T08:25:12;10.20;62.40
17415;DHT22;8825;48.086;16.426;2024-03-06T08:27:40;10.20;61.90
17415;DHT22;8825;48.086;16.426;2024-03-06T08:30:09;10.20;61.50
17415;DHT22;8825;48.086;16.426;2024-03-06T08:32:37;10.30;62.10
17415;DHT22;8825;48.086;16.426;2024-03-06T08:35:06;10.30;61.10
17415;DHT22;8825;48.086;16.426;2024-03-06T08:37:34;10.30;61.20
17415;DHT22;8825;48.086;16.426;2024-03-06T08:40:01;10.40;61.10
17415;DHT22;8825;48.086;16.426;2024-03-06T08:42:29;10.40;60.60
17415;DHT22;8825;48.086;16.426;2024-03-06T08:44:57;10.50;60.10
17415;DHT22;8825;48.086;16.426;2024-03-06T08:47:24;10.50;60.00
17415;DHT22;8825;48.086;16.426;2024-03-06T08:49:52;10.50;60.00
17415;DHT22;8825;48.086;16.426;2024-03-06T08:52:20;10.60;60.50
17415;DHT22;8825;48.086;16.426;2024-03-06T08:54:47;10.60;59.70
17415;DHT22;8825;48.086;16.426;2024-03-06T08:57:15;10.60;59.60
17415;DHT22;8825;48.086;16.426;2024-03-06T08:59:43;10.70;59.80
17415;DHT22;8825;48.086;16.426;2024-03-06T09:02:18;10.80;59.40
17415;DHT22;8825;48.086;16.426;2024-03-06T09:04:46;10.80;59.30
17415;DHT22;8825;48.086;16.426;2024-03-06T09:07:14;10.80;59.20
17415;DHT22;8825;48.086;16.426;2024-03-06T09:09:42;10.90;59.10
17415;DHT22;8825;48.086;16.426;2024-03-06T09:12:10;10.90;59.20
17415;DHT22;8825;48.086;16.426;2024-03-06T09:14:39;11.00;59.00
17415;DHT22;8825;48.086;16.426;2024-03-06T09:17:08;11.10;58.80
17415;DHT22;8825;48.086;16.426;2024-03-06T09:19:41;11.20;58.80
17415;DHT22;8825;48.086;16.426;2024-03-06T09:22:09;11.30;58.30
17415;DHT22;8825;48.086;16.426;2024-03-06T09:24:37;11.50;58.40
17415;DHT22;8825;48.086;16.426;2024-03-06T09:27:07;11.70;58.10
17415;DHT22;8825;48.086;16.426;2024-03-06T09:29:34;12.00;57.50
17415;DHT22;8825;48.086;16.426;2024-03-06T09:32:02;12.20;56.90
17415;DHT22;8825;48.086;16.426;2024-03-06T09:34:30;12.50;57.00
17415;DHT22;8825;48.086;16.426;2024-03-06T09:36:57;12.90;56.40
17415;DHT22;8825;48.086;16.426;2024-03-06T09:39:25;13.20;55.40
17415;DHT22;8825;48.086;16.426;2024-03-06T09:41:54;13.50;55.00
17415;DHT22;8825;48.086;16.426;2024-03-06T09:44:23;13.80;53.00
17415;DHT22;8825;48.086;16.426;2024-03-06T09:46:51;13.90;51.90
17415;DHT22;8825;48.086;16.426;2024-03-06T09:49:19;14.00;50.40
17415;DHT22;8825;48.086;16.426;2024-03-06T09:51:48;14.10;49.90
17415;DHT22;8825;48.086;16.426;2024-03-06T09:54:17;14.20;49.20
17415;DHT22;8825;48.086;16.426;2024-03-06T09:56:45;14.50;49.40
17415;DHT22;8825;48.086;16.426;2024-03-06T09:59:14;14.80;49.50
17415;DHT22;8825;48.086;16.426;2024-03-06T10:01:56;15.10;48.50
17415;DHT22;8825;48.086;16.426;2024-03-06T10:04:25;15.20;47.80
17415;DHT22;8825;48.086;16.426;2024-03-06T10:06:58;15.30;47.40
17415;DHT22;8825;48.086;16.426;2024-03-06T10:09:26;15.60;47.60
17415;DHT22;8825;48.086;16.426;2024-03-06T10:11:55;15.90;47.00
17415;DHT22;8825;48.086;16.426;2024-03-06T10:14:23;16.20;47.10
17415;DHT22;8825;48.086;16.426;2024-03-06T10:16:58;16.50;46.10
17415;DHT22;8825;48.086;16.426;2024-03-06T10:19:27;16.70;46.20
17415;DHT22;8825;48.086;16.426;2024-03-06T10:21:56;16.90;45.20
17415;DHT22;8825;48.086;16.426;2024-03-06T10:24:28;16.80;44.30
17415;DHT22;8825;48.086;16.426;2024-03-06T10:27:15;16.90;44.30
17415;DHT22;8825;48.086;16.426;2024-03-06T10:29:45;17.20;44.70
17415;DHT22;8825;48.086;16.426;2024-03-06T10:32:16;17.40;43.50
17415;DHT22;8825;48.086;16.426;2024-03-06T10:34:45;17.50;43.00
17415;DHT22;8825;48.086;16.426;2024-03-06T10:37:12;17.20;42.20
17415;DHT22;8825;48.086;16.426;2024-03-06T10:39:42;17.00;42.10
17415;DHT22;8825;48.086;16.426;2024-03-06T10:42:12;16.90;42.30
17415;DHT22;8825;48.086;16.426;2024-03-06T10:44:43;17.10;42.90
17415;DHT22;8825;48.086;16.426;2024-03-06T10:47:11;17.40;42.40
17415;DHT22;8825;48.086;16.426;2024-03-06T10:49:39;17.60;41.90
17415;DHT22;8825;48.086;16.426;2024-03-06T10:52:10;17.70;41.30
17415;DHT22;8825;48.086;16.426;2024-03-06T10:54:40;17.60;40.90
17415;DHT22;8825;48.086;16.426;2024-03-06T10:57:08;17.50;40.60
17415;DHT22;8825;48.086;16.426;2024-03-06T10:59:37;17.40;40.10
17415;DHT22;8825;48.086;16.426;2024-03-06T11:02:06;17.20;40.10
17415;DHT22;8825;48.086;16.426;2024-03-06T11:04:35;17.10;40.50
17415;DHT22;8825;48.086;16.426;2024-03-06T11:07:04;17.00;40.40
17415;DHT22;8825;48.086;16.426;2024-03-06T11:09:36;17.10;40.70
17415;DHT22;8825;48.086;16.426;2024-03-06T11:12:06;17.00;40.30
17415;DHT22;8825;48.086;16.426;2024-03-06T11:14:38;16.90;40.70
17415;DHT22;8825;48.086;16.426;2024-03-06T11:17:10;16.90;40.80
17415;DHT22;8825;48.086;16.426;2024-03-06T11:28:19;16.40;42.00
17415;DHT22;8825;48.086;16.426;2024-03-06T11:31:10;16.50;42.50
17415;DHT22;8825;48.086;16.426;2024-03-06T11:33:17;16.30;41.80
17415;DHT22;8825;48.086;16.426;2024-03-06T11:39:02;16.10;42.00
17415;DHT22;8825;48.086;16.426;2024-03-06T11:41:31;15.90;42.40
17415;DHT22;8825;48.086;16.426;2024-03-06T11:44:00;15.90;42.60
17415;DHT22;8825;48.086;16.426;2024-03-06T11:46:48;15.80;42.40
17415;DHT22;8825;48.086;16.426;2024-03-06T11:49:20;15.60;42.50
17415;DHT22;8825;48.086;16.426;2024-03-06T11:51:48;15.60;42.90
17415;DHT22;8825;48.086;16.426;2024-03-06T11:54:15;15.80;43.20
17415;DHT22;8825;48.086;16.426;2024-03-06T11:56:46;15.90;43.50
17415;DHT22;8825;48.086;16.426;2024-03-06T11:59:13;16.10;43.40
17415;DHT22;8825;48.086;16.426;2024-03-06T12:01:41;16.10;42.60
17415;DHT22;8825;48.086;16.426;2024-03-06T12:04:09;15.90;42.60
17415;DHT22;8825;48.086;16.426;2024-03-06T12:06:38;15.90;42.70
17415;DHT22;8825;48.086;16.426;2024-03-06T12:09:06;15.80;42.20
17415;DHT22;8825;48.086;16.426;2024-03-06T12:11:36;15.70;42.50
17415;DHT22;8825;48.086;16.426;2024-03-06T12:14:04;15.80;43.50
17415;DHT22;8825;48.086;16.426;2024-03-06T12:16:32;16.00;43.00
17415;DHT22;8825;48.086;16.426;2024-03-06T12:18:59;16.00;42.90
17415;DHT22;8825;48.086;16.426;2024-03-06T12:21:33;16.10;43.00
17415;DHT22;8825;48.086;16.426;2024-03-06T12:24:05;16.20;43.20
17415;DHT22;8825;48.086;16.426;2024-03-06T12:26:33;16.30;43.50
17415;DHT22;8825;48.086;16.426;2024-03-06T12:29:08;16.20;42.30
17415;DHT22;8825;48.086;16.426;2024-03-06T12:31:38;16.10;42.40
17415;DHT22;8825;48.086;16.426;2024-03-06T12:34:07;16.10;42.80
17415;DHT22;8825;48.086;16.426;2024-03-06T12:36:35;16.00;42.60
17415;DHT22;8825;48.086;16.426;2024-03-06T12:39:04;16.00;42.50
17415;DHT22;8825;48.086;16.426;2024-03-06T12:41:33;16.00;42.70
17415;DHT22;8825;48.086;16.426;2024-03-06T12:44:01;16.00;42.90
17415;DHT22;8825;48.086;16.426;2024-03-06T12:46:29;15.90;43.10
17415;DHT22;8825;48.086;16.426;2024-03-06T12:48:57;15.70;42.60
17415;DHT22;8825;48.086;16.426;2024-03-06T12:51:24;15.70;43.30
17415;DHT22;8825;48.086;16.426;2024-03-06T12:53:52;15.80;43.70
17415;DHT22;8825;48.086;16.426;2024-03-06T12:56:20;15.90;43.70
17415;DHT22;8825;48.086;16.426;2024-03-06T12:58:47;16.00;43.60
17415;DHT22;8825;48.086;16.426;2024-03-06T13:01:15;16.10;43.50
17415;DHT22;8825;48.086;16.426;2024-03-06T13:03:42;15.80;42.50
17415;DHT22;8825;48.086;16.426;2024-03-06T13:06:10;15.60;42.70
17415;DHT22;8825;48.086;16.426;2024-03-06T13:08:38;15.50;43.10
17415;DHT22;8825;48.086;16.426;2024-03-06T13:11:05;15.30;43.10
17415;DHT22;8825;48.086;16.426;2024-03-06T13:13:33;15.10;43.40
17415;DHT22;8825;48.086;16.426;2024-03-06T13:16:01;15.10;44.00
17415;DHT22;8825;48.086;16.426;2024-03-06T13:18:28;15.00;44.40
17415;DHT22;8825;48.086;16.426;2024-03-06T13:20:56;15.00;44.50
17415;DHT22;8825;48.086;16.426;2024-03-06T13:23:25;14.90;45.00
17415;DHT22;8825;48.086;16.426;2024-03-06T13:25:52;14.90;45.20
17415;DHT22;8825;48.086;16.426;2024-03-06T13:28:20;14.90;45.10
17415;DHT22;8825;48.086;16.426;2024-03-06T13:30:47;14.90;45.20
17415;DHT22;8825;48.086;16.426;2024-03-06T13:33:16;14.90;45.30
17415;DHT22;8825;48.086;16.426;2024-03-06T13:35:44;15.00;45.40
17415;DHT22;8825;48.086;16.426;2024-03-06T13:38:11;15.00;45.40
17415;DHT22;8825;48.086;16.426;2024-03-06T13:40:39;15.00;45.50
17415;DHT22;8825;48.086;16.426;2024-03-06T13:43:06;15.10;45.30
17415;DHT22;8825;48.086;16.426;2024-03-06T13:45:34;15.00;44.80
17415;DHT22;8825;48.086;16.426;2024-03-06T13:48:13;15.00;45.00
17415;DHT22;8825;48.086;16.426;2024-03-06T13:50:33;14.90;45.00
17415;DHT22;8825;48.086;16.426;2024-03-06T13:53:01;14.80;45.10
17415;DHT22;8825;48.086;16.426;2024-03-06T13:55:28;14.70;45.30
17415;DHT22;8825;48.086;16.426;2024-03-06T13:57:58;14.60;45.40
17415;DHT22;8825;48.086;16.426;2024-03-06T14:00:25;14.40;45.20
17415;DHT22;8825;48.086;16.426;2024-03-06T14:02:53;14.30;45.40
17415;DHT22;8825;48.086;16.426;2024-03-06T14:05:20;14.20;45.90
17415;DHT22;8825;48.086;16.426;2024-03-06T14:07:50;14.20;46.10
17415;DHT22;8825;48.086;16.426;2024-03-06T14:10:18;14.20;46.20
17415;DHT22;8825;48.086;16.426;2024-03-06T14:12:47;14.20;46.30
17415;DHT22;8825;48.086;16.426;2024-03-06T14:15:16;14.20;46.60
17415;DHT22;8825;48.086;16.426;2024-03-06T14:17:45;14.00;46.60
17415;DHT22;8825;48.086;16.426;2024-03-06T14:20:13;13.90;47.00
17415;DHT22;8825;48.086;16.426;2024-03-06T14:22:42;13.90;47.20
17415;DHT22;8825;48.086;16.426;2024-03-06T14:25:10;13.80;47.30
17415;DHT22;8825;48.086;16.426;2024-03-06T14:27:37;13.70;47.50
17415;DHT22;8825;48.086;16.426;2024-03-06T14:30:07;13.70;47.80
17415;DHT22;8825;48.086;16.426;2024-03-06T14:32:35;13.70;47.70
17415;DHT22;8825;48.086;16.426;2024-03-06T14:37:43;13.50;47.50
17415;DHT22;8825;48.086;16.426;2024-03-06T14:40:11;13.40;47.80
17415;DHT22;8825;48.086;16.426;2024-03-06T14:42:39;13.30;47.80
17415;DHT22;8825;48.086;16.426;2024-03-06T14:45:07;13.20;47.90
17415;DHT22;8825;48.086;16.426;2024-03-06T14:47:36;13.10;48.00
17415;DHT22;8825;48.086;16.426;2024-03-06T14:50:04;12.90;48.10
17415;DHT22;8825;48.086;16.426;2024-03-06T14:52:31;12.80;48.30
17415;DHT22;8825;48.086;16.426;2024-03-06T14:54:59;12.80;48.50
17415;DHT22;8825;48.086;16.426;2024-03-06T14:57:26;12.80;48.40
17415;DHT22;8825;48.086;16.426;2024-03-06T14:59:54;12.70;48.40
17415;DHT22;8825;48.086;16.426;2024-03-06T15:02:21;12.70;48.60
17415;DHT22;8825;48.086;16.426;2024-03-06T15:04:49;12.50;48.70
17415;DHT22;8825;48.086;16.426;2024-03-06T15:07:16;12.50;48.80
17415;DHT22;8825;48.086;16.426;2024-03-06T15:09:45;12.40;48.90
17415;DHT22;8825;48.086;16.426;2024-03-06T15:12:12;12.30;49.00
17415;DHT22;8825;48.086;16.426;2024-03-06T15:14:40;12.20;49.20
17415;DHT22;8825;48.086;16.426;2024-03-06T15:17:07;12.20;49.20
17415;DHT22;8825;48.086;16.426;2024-03-06T15:19:36;12.20;49.30
17415;DHT22;8825;48.086;16.426;2024-03-06T15:22:04;12.10;49.30
17415;DHT22;8825;48.086;16.426;2024-03-06T15:24:31;12.10;49.40
17415;DHT22;8825;48.086;16.426;2024-03-06T15:26:59;12.00;49.30
17415;DHT22;8825;48.086;16.426;2024-03-06T15:29:26;12.00;49.40
17415;DHT22;8825;48.086;16.426;2024-03-06T15:31:54;11.90;49.60
17415;DHT22;8825;48.086;16.426;2024-03-06T15:34:21;11.90;49.60
17415;DHT22;8825;48.086;16.426;2024-03-06T15:36:49;11.90;49.80
17415;DHT22;8825;48.086;16.426;2024-03-06T15:39:16;11.90;50.00
17415;DHT22;8825;48.086;16.426;2024-03-06T15:41:44;11.80;50.10
17415;DHT22;8825;48.086;16.426;2024-03-06T15:44:11;11.80;50.10
17415;DHT22;8825;48.086;16.426;2024-03-06T15:46:39;11.80;50.10
17415;DHT22;8825;48.086;16.426;2024-03-06T15:49:18;11.80;50.10
17415;DHT22;8825;48.086;16.426;2024-03-06T15:51:37;11.90;50.10
17415;DHT22;8825;48.086;16.426;2024-03-06T15:54:05;11.90;50.00
17415;DHT22;8825;48.086;16.426;2024-03-06T15:56:33;11.90;49.70
17415;DHT22;8825;48.086;16.426;2024-03-06T15:59:01;11.80;49.50
17415;DHT22;8825;48.086;16.426;2024-03-06T16:01:29;11.80;49.40